sensor_id;sensor_type;location;lat;lon;timestamp;P1;durP1;ratioP1;P2;durP2;ratioP2
77415;SDS011;66489;49.230;8.520;2023-01-30T05:01:41;25.00;;;13.05;;
77415;SDS011;66489;49.230;8.520;2023-01-30T05:04:08;23.55;;;12.43;;
77415;SDS011;66489;49.230;8.520;2023-01-30T05:06:35;24.05;;;11.88;;
77415;SDS011;66489;49.230;8.520;2023-01-30T05:09:02;26.02;;;11.98;;
77415;SDS011;66489;49.230;8.520;2023-01-30T05:11:29;28.17;;;12.30;;
77415;SDS011;66489;49.230;8.520;2023-01-30T05:13:56;23.20;;;11.57;;
77415;SDS011;66489;49.230;8.520;2023-01-30T05:16:22;22.88;;;12.20;;
77415;SDS011;66489;49.230;8.520;2023-01-30T05:18:49;22.45;;;11.02;;
77415;SDS011;66489;49.230;8.520;2023-01-30T05:21:17;24.17;;;11.95;;
77415;SDS011;66489;49.230;8.520;2023-01-30T05:23:44;20.27;;;11.15;;
77415;SDS011;66489;49.230;8.520;2023-01-30T05:26:12;24.17;;;12.35;;
77415;SDS011;66489;49.230;8.520;2023-01-30T05:28:40;20.05;;;10.52;;
77415;SDS011;66489;49.230;8.520;2023-01-30T05:31:08;21.83;;;11.23;;
77415;SDS011;66489;49.230;8.520;2023-01-30T05:33:37;21.65;;;11.93;;
77415;SDS011;66489;49.230;8.520;2023-01-30T05:36:04;23.83;;;12.00;;
77415;SDS011;66489;49.230;8.520;2023-01-30T05:38:31;20.75;;;11.55;;
77415;SDS011;66489;49.230;8.520;2023-01-30T05:41:05;21.00;;;11.32;;
77415;SDS011;66489;49.230;8.520;2023-01-30T05:43:33;21.20;;;10.55;;
77415;SDS011;66489;49.230;8.520;2023-01-30T05:46:00;23.45;;;11.88;;
77415;SDS011;66489;49.230;8.520;2023-01-30T05:48:28;21.50;;;11.27;;
77415;SDS011;66489;49.230;8.520;2023-01-30T05:50:55;20.13;;;10.15;;
77415;SDS011;66489;49.230;8.520;2023-01-30T05:53:23;21.25;;;11.30;;
77415;SDS011;66489;49.230;8.520;2023-01-30T05:55:56;21.67;;;10.50;;
77415;SDS011;66489;49.230;8.520;2023-01-30T05:58:29;24.25;;;11.93;;
77415;SDS011;66489;49.230;8.520;2023-01-30T06:01:04;24.98;;;12.02;;
77415;SDS011;66489;49.230;8.520;2023-01-30T06:03:31;28.77;;;14.27;;
77415;SDS011;66489;49.230;8.520;2023-01-30T06:05:59;24.38;;;12.25;;
77415;SDS011;66489;49.230;8.520;2023-01-30T06:08:27;19.65;;;9.95;;
77415;SDS011;66489;49.230;8.520;2023-01-30T06:10:53;24.08;;;12.15;;
77415;SDS011;66489;49.230;8.520;2023-01-30T06:13:20;21.35;;;11.60;;
77415;SDS011;66489;49.230;8.520;2023-01-30T06:15:46;24.02;;;11.95;;
77415;SDS011;66489;49.230;8.520;2023-01-30T06:18:13;20.65;;;10.20;;
77415;SDS011;66489;49.230;8.520;2023-01-30T06:20:39;22.80;;;11.50;;
77415;SDS011;66489;49.230;8.520;2023-01-30T06:23:06;23.13;;;12.40;;
77415;SDS011;66489;49.230;8.520;2023-01-30T06:25:32;23.27;;;12.65;;
77415;SDS011;66489;49.230;8.520;2023-01-30T06:27:59;22.42;;;11.80;;
77415;SDS011;66489;49.230;8.520;2023-01-30T06:30:25;23.10;;;11.65;;
77415;SDS011;66489;49.230;8.520;2023-01-30T06:32:52;23.67;;;12.10;;
77415;SDS011;66489;49.230;8.520;2023-01-30T06:35:19;23.95;;;11.70;;
77415;SDS011;66489;49.230;8.520;2023-01-30T06:37:46;27.15;;;12.25;;
77415;SDS011;66489;49.230;8.520;2023-01-30T06:40:12;23.02;;;10.93;;
77415;SDS011;66489;49.230;8.520;2023-01-30T06:42:43;22.25;;;10.07;;
77415;SDS011;66489;49.230;8.520;2023-01-30T06:45:10;22.35;;;11.00;;
77415;SDS011;66489;49.230;8.520;2023-01-30T06:47:47;20.90;;;9.10;;
77415;SDS011;66489;49.230;8.520;2023-01-30T06:50:15;20.10;;;10.85;;
77415;SDS011;66489;49.230;8.520;2023-01-30T06:52:44;22.20;;;10.23;;
77415;SDS011;66489;49.230;8.520;2023-01-30T06:55:12;20.02;;;10.10;;
77415;SDS011;66489;49.230;8.520;2023-01-30T06:57:41;22.30;;;10.75;;
77415;SDS011;66489;49.230;8.520;2023-01-30T07:00:09;22.17;;;10.73;;
77415;SDS011;66489;49.230;8.520;2023-01-30T07:05:04;21.35;;;10.43;;
77415;SDS011;66489;49.230;8.520;2023-01-30T07:07:31;20.92;;;10.32;;
77415;SDS011;66489;49.230;8.520;2023-01-30T07:09:58;23.15;;;11.48;;
77415;SDS011;66489;49.230;8.520;2023-01-30T07:12:33;25.85;;;11.38;;
77415;SDS011;66489;49.230;8.520;2023-01-30T07:15:00;22.77;;;11.25;;
77415;SDS011;66489;49.230;8.520;2023-01-30T07:17:26;20.75;;;10.90;;
77415;SDS011;66489;49.230;8.520;2023-01-30T07:19:53;20.88;;;10.32;;
77415;SDS011;66489;49.230;8.520;2023-01-30T07:22:19;20.23;;;10.13;;
77415;SDS011;66489;49.230;8.520;2023-01-30T07:24:46;21.63;;;11.50;;
77415;SDS011;66489;49.230;8.520;2023-01-30T07:27:13;22.77;;;11.70;;
77415;SDS011;66489;49.230;8.520;2023-01-30T07:29:39;23.83;;;12.55;;
77415;SDS011;66489;49.230;8.520;2023-01-30T07:32:06;21.80;;;11.57;;
77415;SDS011;66489;49.230;8.520;2023-01-30T07:34:39;22.77;;;11.23;;
77415;SDS011;66489;49.230;8.520;2023-01-30T07:37:05;21.38;;;11.45;;
77415;SDS011;66489;49.230;8.520;2023-01-30T07:39:32;22.38;;;11.20;;
77415;SDS011;66489;49.230;8.520;2023-01-30T07:41:59;24.17;;;11.30;;
77415;SDS011;66489;49.230;8.520;2023-01-30T07:44:26;21.10;;;10.82;;
77415;SDS011;66489;49.230;8.520;2023-01-30T07:46:53;21.65;;;10.98;;
77415;SDS011;66489;49.230;8.520;2023-01-30T07:49:20;22.20;;;10.35;;
77415;SDS011;66489;49.230;8.520;2023-01-30T07:51:46;20.98;;;10.50;;
77415;SDS011;66489;49.230;8.520;2023-01-30T07:54:13;20.25;;;10.77;;
77415;SDS011;66489;49.230;8.520;2023-01-30T07:56:39;20.98;;;10.85;;
77415;SDS011;66489;49.230;8.520;2023-01-30T07:59:06;20.48;;;10.70;;
77415;SDS011;66489;49.230;8.520;2023-01-30T08:01:32;22.63;;;10.82;;
77415;SDS011;66489;49.230;8.520;2023-01-30T08:03:59;21.50;;;10.80;;
77415;SDS011;66489;49.230;8.520;2023-01-30T08:06:26;20.85;;;11.55;;
77415;SDS011;66489;49.230;8.520;2023-01-30T08:08:52;23.55;;;11.68;;
77415;SDS011;66489;49.230;8.520;2023-01-30T08:11:19;21.17;;;10.68;;
77415;SDS011;66489;49.230;8.520;2023-01-30T08:13:45;22.40;;;11.63;;
77415;SDS011;66489;49.230;8.520;2023-01-30T08:16:12;23.17;;;12.07;;
77415;SDS011;66489;49.230;8.520;2023-01-30T08:18:39;23.35;;;11.48;;
77415;SDS011;66489;49.230;8.520;2023-01-30T08:21:06;23.15;;;12.38;;
77415;SDS011;66489;49.230;8.520;2023-01-30T08:23:32;25.00;;;12.07;;
77415;SDS011;66489;49.230;8.520;2023-01-30T08:26:00;23.05;;;12.75;;
77415;SDS011;66489;49.230;8.520;2023-01-30T08:28:28;27.98;;;13.55;;
77415;SDS011;66489;49.230;8.520;2023-01-30T08:30:58;24.48;;;12.50;;
77415;SDS011;66489;49.230;8.520;2023-01-30T08:33:25;22.80;;;11.82;;
77415;SDS011;66489;49.230;8.520;2023-01-30T08:35:52;24.45;;;12.00;;
77415;SDS011;66489;49.230;8.520;2023-01-30T08:38:18;21.38;;;10.90;;
77415;SDS011;66489;49.230;8.520;2023-01-30T08:40:45;20.92;;;10.48;;
77415;SDS011;66489;49.230;8.520;2023-01-30T08:43:11;23.13;;;11.88;;
77415;SDS011;66489;49.230;8.520;2023-01-30T08:45:38;21.33;;;11.50;;
77415;SDS011;66489;49.230;8.520;2023-01-30T08:48:04;21.73;;;10.98;;
77415;SDS011;66489;49.230;8.520;2023-01-30T08:50:32;25.73;;;11.13;;
77415;SDS011;66489;49.230;8.520;2023-01-30T08:53:02;20.83;;;10.38;;
77415;SDS011;66489;49.230;8.520;2023-01-30T08:55:30;21.00;;;10.35;;
77415;SDS011;66489;49.230;8.520;2023-01-30T08:57:57;25.27;;;13.02;;
77415;SDS011;66489;49.230;8.520;2023-01-30T09:00:24;27.38;;;13.40;;
77415;SDS011;66489;49.230;8.520;2023-01-30T09:02:53;21.20;;;11.35;;
77415;SDS011;66489;49.230;8.520;2023-01-30T09:05:23;39.45;;;19.40;;
77415;SDS011;66489;49.230;8.520;2023-01-30T09:07:50;24.13;;;11.55;;
77415;SDS011;66489;49.230;8.520;2023-01-30T09:10:16;22.42;;;11.52;;
77415;SDS011;66489;49.230;8.520;2023-01-30T09:12:44;20.73;;;10.40;;
77415;SDS011;66489;49.230;8.520;2023-01-30T09:15:11;22.45;;;10.70;;
77415;SDS011;66489;49.230;8.520;2023-01-30T09:17:38;18.75;;;9.93;;
77415;SDS011;66489;49.230;8.520;2023-01-30T09:20:05;23.70;;;12.07;;
77415;SDS011;66489;49.230;8.520;2023-01-30T09:22:33;19.23;;;9.85;;
77415;SDS011;66489;49.230;8.520;2023-01-30T09:25:00;21.33;;;10.95;;
77415;SDS011;66489;49.230;8.520;2023-01-30T09:27:26;20.67;;;10.95;;
77415;SDS011;66489;49.230;8.520;2023-01-30T09:29:53;20.40;;;10.68;;
77415;SDS011;66489;49.230;8.520;2023-01-30T09:32:20;21.88;;;10.95;;
77415;SDS011;66489;49.230;8.520;2023-01-30T09:34:46;21.48;;;11.25;;
77415;SDS011;66489;49.230;8.520;2023-01-30T09:37:13;25.63;;;13.88;;
77415;SDS011;66489;49.230;8.520;2023-01-30T09:39:39;20.95;;;10.82;;
77415;SDS011;66489;49.230;8.520;2023-01-30T09:42:10;21.40;;;10.60;;
77415;SDS011;66489;49.230;8.520;2023-01-30T09:45:07;20.83;;;11.32;;
77415;SDS011;66489;49.230;8.520;2023-01-30T09:56:01;19.70;;;10.20;;
77415;SDS011;66489;49.230;8.520;2023-01-30T09:58:34;19.55;;;10.27;;
77415;SDS011;66489;49.230;8.520;2023-01-30T10:01:24;16.55;;;8.50;;
77415;SDS011;66489;49.230;8.520;2023-01-30T10:04:12;18.88;;;10.05;;
77415;SDS011;66489;49.230;8.520;2023-01-30T10:06:44;18.05;;;8.93;;
77415;SDS011;66489;49.230;8.520;2023-01-30T10:09:27;21.58;;;10.55;;
77415;SDS011;66489;49.230;8.520;2023-01-30T10:17:43;17.10;;;8.55;;
77415;SDS011;66489;49.230;8.520;2023-01-30T10:25:52;18.77;;;9.65;;
77415;SDS011;66489;49.230;8.520;2023-01-30T10:28:34;15.20;;;7.63;;
77415;SDS011;66489;49.230;8.520;2023-01-30T10:31:13;15.90;;;8.15;;
77415;SDS011;66489;49.230;8.520;2023-01-30T10:33:50;16.73;;;7.95;;
77415;SDS011;66489;49.230;8.520;2023-01-30T10:42:30;17.80;;;8.93;;
77415;SDS011;66489;49.230;8.520;2023-01-30T10:51:22;16.90;;;8.60;;
77415;SDS011;66489;49.230;8.520;2023-01-30T10:59:21;17.35;;;8.65;;
77415;SDS011;66489;49.230;8.520;2023-01-30T11:01:59;16.08;;;8.52;;
77415;SDS011;66489;49.230;8.520;2023-01-30T11:04:39;14.73;;;7.70;;
77415;SDS011;66489;49.230;8.520;2023-01-30T11:07:09;17.20;;;9.15;;
77415;SDS011;66489;49.230;8.520;2023-01-30T11:09:37;21.95;;;10.93;;
77415;SDS011;66489;49.230;8.520;2023-01-30T11:12:08;24.33;;;11.50;;
77415;SDS011;66489;49.230;8.520;2023-01-30T11:20:03;20.08;;;9.77;;
77415;SDS011;66489;49.230;8.520;2023-01-30T11:22:33;20.83;;;9.77;;
77415;SDS011;66489;49.230;8.520;2023-01-30T11:25:01;19.00;;;10.02;;
77415;SDS011;66489;49.230;8.520;2023-01-30T11:27:34;19.52;;;10.20;;
77415;SDS011;66489;49.230;8.520;2023-01-30T11:30:05;17.55;;;9.98;;
77415;SDS011;66489;49.230;8.520;2023-01-30T11:32:35;17.83;;;9.30;;
77415;SDS011;66489;49.230;8.520;2023-01-30T11:40:06;22.75;;;11.40;;
77415;SDS011;66489;49.230;8.520;2023-01-30T11:43:03;22.20;;;10.80;;
77415;SDS011;66489;49.230;8.520;2023-01-30T11:45:34;19.42;;;10.05;;
77415;SDS011;66489;49.230;8.520;2023-01-30T11:48:03;21.55;;;10.45;;
77415;SDS011;66489;49.230;8.520;2023-01-30T11:51:00;20.27;;;10.57;;
77415;SDS011;66489;49.230;8.520;2023-01-30T11:56:03;19.92;;;10.18;;
77415;SDS011;66489;49.230;8.520;2023-01-30T11:58:37;19.35;;;10.52;;
77415;SDS011;66489;49.230;8.520;2023-01-30T12:01:04;19.92;;;10.88;;
77415;SDS011;66489;49.230;8.520;2023-01-30T12:03:34;19.20;;;10.52;;
77415;SDS011;66489;49.230;8.520;2023-01-30T12:06:08;20.10;;;10.15;;
77415;SDS011;66489;49.230;8.520;2023-01-30T12:08:35;20.02;;;10.43;;
77415;SDS011;66489;49.230;8.520;2023-01-30T12:13:50;19.67;;;10.18;;
77415;SDS011;66489;49.230;8.520;2023-01-30T12:19:02;21.55;;;10.50;;
77415;SDS011;66489;49.230;8.520;2023-01-30T12:24:30;19.55;;;10.63;;
77415;SDS011;66489;49.230;8.520;2023-01-30T12:27:15;20.38;;;10.07;;
77415;SDS011;66489;49.230;8.520;2023-01-30T12:32:31;17.63;;;9.50;;
77415;SDS011;66489;49.230;8.520;2023-01-30T12:35:00;18.33;;;9.93;;
77415;SDS011;66489;49.230;8.520;2023-01-30T12:37:34;17.95;;;9.13;;
77415;SDS011;66489;49.230;8.520;2023-01-30T12:42:41;19.60;;;10.15;;
77415;SDS011;66489;49.230;8.520;2023-01-30T12:45:23;20.48;;;10.70;;
77415;SDS011;66489;49.230;8.520;2023-01-30T12:58:20;16.92;;;8.95;;
77415;SDS011;66489;49.230;8.520;2023-01-30T13:03:42;15.32;;;7.85;;
77415;SDS011;66489;49.230;8.520;2023-01-30T13:15:13;17.10;;;8.93;;
77415;SDS011;66489;49.230;8.520;2023-01-30T13:17:52;22.40;;;9.67;;
77415;SDS011;66489;49.230;8.520;2023-01-30T13:23:12;20.35;;;9.20;;
77415;SDS011;66489;49.230;8.520;2023-01-30T13:26:07;16.25;;;8.75;;
77415;SDS011;66489;49.230;8.520;2023-01-30T13:28:57;16.30;;;8.77;;
77415;SDS011;66489;49.230;8.520;2023-01-30T13:31:29;13.68;;;7.88;;
77415;SDS011;66489;49.230;8.520;2023-01-30T13:34:09;16.55;;;8.82;;
77415;SDS011;66489;49.230;8.520;2023-01-30T13:36:51;14.40;;;7.72;;
77415;SDS011;66489;49.230;8.520;2023-01-30T13:39:37;17.17;;;9.93;;
77415;SDS011;66489;49.230;8.520;2023-01-30T13:58:22;11.93;;;6.78;;
77415;SDS011;66489;49.230;8.520;2023-01-30T14:00:56;12.57;;;7.15;;
77415;SDS011;66489;49.230;8.520;2023-01-30T14:03:33;13.23;;;7.28;;
77415;SDS011;66489;49.230;8.520;2023-01-30T14:06:05;11.85;;;6.53;;
77415;SDS011;66489;49.230;8.520;2023-01-30T14:08:47;13.40;;;7.63;;
77415;SDS011;66489;49.230;8.520;2023-01-30T14:11:26;11.82;;;6.90;;
77415;SDS011;66489;49.230;8.520;2023-01-30T14:14:03;11.40;;;6.53;;
77415;SDS011;66489;49.230;8.520;2023-01-30T14:16:42;13.38;;;7.47;;
77415;SDS011;66489;49.230;8.520;2023-01-30T14:19:20;13.07;;;6.93;;
77415;SDS011;66489;49.230;8.520;2023-01-30T14:21:57;16.85;;;8.35;;
77415;SDS011;66489;49.230;8.520;2023-01-30T14:24:25;14.07;;;7.95;;
77415;SDS011;66489;49.230;8.520;2023-01-30T14:34:42;9.45;;;5.47;;
77415;SDS011;66489;49.230;8.520;2023-01-30T14:37:28;10.80;;;5.72;;
77415;SDS011;66489;49.230;8.520;2023-01-30T14:39:56;11.40;;;6.00;;
77415;SDS011;66489;49.230;8.520;2023-01-30T14:42:24;10.93;;;6.00;;
77415;SDS011;66489;49.230;8.520;2023-01-30T14:47:39;10.20;;;5.47;;
77415;SDS011;66489;49.230;8.520;2023-01-30T14:50:20;9.73;;;5.47;;
77415;SDS011;66489;49.230;8.520;2023-01-30T14:52:48;9.65;;;5.05;;
77415;SDS011;66489;49.230;8.520;2023-01-30T14:55:20;10.80;;;6.03;;
77415;SDS011;66489;49.230;8.520;2023-01-30T14:57:51;12.30;;;6.20;;
77415;SDS011;66489;49.230;8.520;2023-01-30T15:00:22;13.45;;;5.95;;
77415;SDS011;66489;49.230;8.520;2023-01-30T15:02:52;13.88;;;5.90;;
77415;SDS011;66489;49.230;8.520;2023-01-30T15:05:26;13.82;;;6.63;;
77415;SDS011;66489;49.230;8.520;2023-01-30T15:08:06;11.20;;;6.07;;
77415;SDS011;66489;49.230;8.520;2023-01-30T15:16:07;14.13;;;7.47;;
77415;SDS011;66489;49.230;8.520;2023-01-30T15:32:31;14.50;;;7.72;;
77415;SDS011;66489;49.230;8.520;2023-01-30T15:35:00;12.65;;;7.00;;
77415;SDS011;66489;49.230;8.520;2023-01-30T15:51:02;10.88;;;6.30;;
77415;SDS011;66489;49.230;8.520;2023-01-30T15:53:34;12.48;;;6.78;;
77415;SDS011;66489;49.230;8.520;2023-01-30T15:56:06;11.73;;;6.40;;
77415;SDS011;66489;49.230;8.520;2023-01-30T15:58:34;11.18;;;5.75;;
77415;SDS011;66489;49.230;8.520;2023-01-30T16:01:06;11.73;;;6.28;;
77415;SDS011;66489;49.230;8.520;2023-01-30T16:03:36;14.13;;;7.82;;
77415;SDS011;66489;49.230;8.520;2023-01-30T16:06:06;37.58;;;16.27;;
77415;SDS011;66489;49.230;8.520;2023-01-30T16:08:35;13.05;;;7.05;;
77415;SDS011;66489;49.230;8.520;2023-01-30T16:11:02;12.52;;;7.20;;
77415;SDS011;66489;49.230;8.520;2023-01-30T16:13:28;12.35;;;7.22;;
77415;SDS011;66489;49.230;8.520;2023-01-30T16:16:00;17.17;;;12.48;;
77415;SDS011;66489;49.230;8.520;2023-01-30T16:21:06;11.73;;;6.70;;
77415;SDS011;66489;49.230;8.520;2023-01-30T16:23:59;16.33;;;8.95;;
77415;SDS011;66489;49.230;8.520;2023-01-30T16:26:28;11.75;;;6.75;;
77415;SDS011;66489;49.230;8.520;2023-01-30T16:29:05;13.10;;;6.55;;
77415;SDS011;66489;49.230;8.520;2023-01-30T16:31:36;12.75;;;7.10;;
77415;SDS011;66489;49.230;8.520;2023-01-30T16:34:03;12.90;;;6.45;;
77415;SDS011;66489;49.230;8.520;2023-01-30T16:36:32;12.35;;;6.90;;
77415;SDS011;66489;49.230;8.520;2023-01-30T16:39:03;12.25;;;6.75;;
77415;SDS011;66489;49.230;8.520;2023-01-30T16:41:54;11.07;;;6.25;;
77415;SDS011;66489;49.230;8.520;2023-01-30T16:44:22;13.25;;;8.95;;
77415;SDS011;66489;49.230;8.520;2023-01-30T16:54:43;12.75;;;7.20;;
77415;SDS011;66489;49.230;8.520;2023-01-30T16:57:22;13.40;;;7.55;;
77415;SDS011;66489;49.230;8.520;2023-01-30T17:00:05;12.75;;;7.30;;
77415;SDS011;66489;49.230;8.520;2023-01-30T17:02:50;12.45;;;6.75;;
77415;SDS011;66489;49.230;8.520;2023-01-30T17:05:23;12.00;;;6.80;;
77415;SDS011;66489;49.230;8.520;2023-01-30T17:07:52;12.65;;;7.13;;
77415;SDS011;66489;49.230;8.520;2023-01-30T17:10:46;12.50;;;7.28;;
77415;SDS011;66489;49.230;8.520;2023-01-30T17:13:25;15.10;;;7.38;;
77415;SDS011;66489;49.230;8.520;2023-01-30T17:18:48;16.88;;;8.27;;
77415;SDS011;66489;49.230;8.520;2023-01-30T17:21:19;13.98;;;7.72;;
77415;SDS011;66489;49.230;8.520;2023-01-30T17:24:00;15.07;;;8.35;;
77415;SDS011;66489;49.230;8.520;2023-01-30T17:26:28;15.05;;;7.75;;
77415;SDS011;66489;49.230;8.520;2023-01-30T17:28:56;15.25;;;7.75;;
77415;SDS011;66489;49.230;8.520;2023-01-30T17:31:22;15.48;;;7.40;;
77415;SDS011;66489;49.230;8.520;2023-01-30T17:33:49;17.13;;;8.25;;
77415;SDS011;66489;49.230;8.520;2023-01-30T17:38:56;12.88;;;7.20;;
77415;SDS011;66489;49.230;8.520;2023-01-30T17:41:26;13.07;;;7.80;;
77415;SDS011;66489;49.230;8.520;2023-01-30T17:43:56;15.10;;;8.25;;
77415;SDS011;66489;49.230;8.520;2023-01-30T17:46:30;14.05;;;8.20;;
77415;SDS011;66489;49.230;8.520;2023-01-30T17:48:59;14.93;;;8.55;;
77415;SDS011;66489;49.230;8.520;2023-01-30T17:51:28;15.93;;;8.75;;
77415;SDS011;66489;49.230;8.520;2023-01-30T17:53:55;17.80;;;7.80;;
77415;SDS011;66489;49.230;8.520;2023-01-30T17:58:54;16.23;;;9.25;;
77415;SDS011;66489;49.230;8.520;2023-01-30T18:01:21;17.75;;;9.10;;
77415;SDS011;66489;49.230;8.520;2023-01-30T18:03:47;17.60;;;10.43;;
77415;SDS011;66489;49.230;8.520;2023-01-30T18:06:14;19.13;;;10.32;;
77415;SDS011;66489;49.230;8.520;2023-01-30T18:08:41;16.88;;;9.20;;
77415;SDS011;66489;49.230;8.520;2023-01-30T18:11:08;15.48;;;8.90;;
77415;SDS011;66489;49.230;8.520;2023-01-30T18:13:37;16.03;;;9.33;;
77415;SDS011;66489;49.230;8.520;2023-01-30T18:16:05;18.63;;;10.15;;
77415;SDS011;66489;49.230;8.520;2023-01-30T18:18:31;16.95;;;9.52;;
77415;SDS011;66489;49.230;8.520;2023-01-30T18:20:58;15.27;;;8.98;;
77415;SDS011;66489;49.230;8.520;2023-01-30T18:23:25;19.83;;;9.95;;
77415;SDS011;66489;49.230;8.520;2023-01-30T18:25:51;17.20;;;10.02;;
77415;SDS011;66489;49.230;8.520;2023-01-30T18:28:18;20.23;;;10.75;;
77415;SDS011;66489;49.230;8.520;2023-01-30T18:30:44;17.00;;;8.98;;
77415;SDS011;66489;49.230;8.520;2023-01-30T18:33:11;16.15;;;9.07;;
77415;SDS011;66489;49.230;8.520;2023-01-30T18:35:38;16.33;;;8.85;;
77415;SDS011;66489;49.230;8.520;2023-01-30T18:38:04;17.42;;;9.60;;
77415;SDS011;66489;49.230;8.520;2023-01-30T18:40:31;19.88;;;9.80;;
77415;SDS011;66489;49.230;8.520;2023-01-30T18:42:58;18.40;;;9.85;;
77415;SDS011;66489;49.230;8.520;2023-01-30T18:45:24;15.40;;;8.68;;
77415;SDS011;66489;49.230;8.520;2023-01-30T18:47:57;17.42;;;9.40;;
77415;SDS011;66489;49.230;8.520;2023-01-30T18:50:24;14.82;;;7.72;;
77415;SDS011;66489;49.230;8.520;2023-01-30T18:52:51;16.60;;;9.35;;
77415;SDS011;66489;49.230;8.520;2023-01-30T18:55:17;15.30;;;8.43;;
77415;SDS011;66489;49.230;8.520;2023-01-30T18:57:45;16.67;;;8.60;;
77415;SDS011;66489;49.230;8.520;2023-01-30T19:00:12;15.75;;;9.23;;
77415;SDS011;66489;49.230;8.520;2023-01-30T19:02:43;15.45;;;8.75;;
77415;SDS011;66489;49.230;8.520;2023-01-30T19:05:09;16.98;;;9.02;;
77415;SDS011;66489;49.230;8.520;2023-01-30T19:07:39;19.30;;;9.85;;
77415;SDS011;66489;49.230;8.520;2023-01-30T19:10:05;19.20;;;11.27;;
77415;SDS011;66489;49.230;8.520;2023-01-30T19:12:32;16.85;;;9.65;;
77415;SDS011;66489;49.230;8.520;2023-01-30T19:15:18;17.52;;;9.88;;
77415;SDS011;66489;49.230;8.520;2023-01-30T19:17:45;18.48;;;9.48;;
77415;SDS011;66489;49.230;8.520;2023-01-30T19:20:11;16.73;;;9.70;;
77415;SDS011;66489;49.230;8.520;2023-01-30T19:22:38;15.77;;;9.02;;
77415;SDS011;66489;49.230;8.520;2023-01-30T19:25:05;15.38;;;9.27;;
77415;SDS011;66489;49.230;8.520;2023-01-30T19:27:34;16.85;;;8.82;;
77415;SDS011;66489;49.230;8.520;2023-01-30T19:30:02;15.18;;;8.95;;
77415;SDS011;66489;49.230;8.520;2023-01-30T19:32:29;18.17;;;9.05;;
77415;SDS011;66489;49.230;8.520;2023-01-30T19:34:56;20.30;;;10.30;;
77415;SDS011;66489;49.230;8.520;2023-01-30T19:37:22;17.27;;;10.38;;
77415;SDS011;66489;49.230;8.520;2023-01-30T19:39:49;16.60;;;9.35;;
77415;SDS011;66489;49.230;8.520;2023-01-30T19:42:16;16.75;;;9.70;;
77415;SDS011;66489;49.230;8.520;2023-01-30T19:44:45;37.17;;;24.38;;
77415;SDS011;66489;49.230;8.520;2023-01-30T19:47:11;22.55;;;12.48;;
77415;SDS011;66489;49.230;8.520;2023-01-30T19:49:41;17.92;;;9.85;;
77415;SDS011;66489;49.230;8.520;2023-01-30T19:52:08;15.93;;;9.07;;
77415;SDS011;66489;49.230;8.520;2023-01-30T19:54:35;16.15;;;8.60;;
77415;SDS011;66489;49.230;8.520;2023-01-30T19:57:01;16.92;;;8.85;;
77415;SDS011;66489;49.230;8.520;2023-01-30T19:59:28;16.25;;;9.40;;
77415;SDS011;66489;49.230;8.520;2023-01-30T20:01:55;16.33;;;9.05;;
77415;SDS011;66489;49.230;8.520;2023-01-30T20:04:21;16.35;;;9.32;;
77415;SDS011;66489;49.230;8.520;2023-01-30T20:06:48;15.00;;;8.48;;
77415;SDS011;66489;49.230;8.520;2023-01-30T20:09:15;15.25;;;8.73;;
77415;SDS011;66489;49.230;8.520;2023-01-30T20:11:42;15.85;;;8.93;;
77415;SDS011;66489;49.230;8.520;2023-01-30T20:14:09;17.83;;;8.88;;
77415;SDS011;66489;49.230;8.520;2023-01-30T20:16:36;17.40;;;8.65;;
77415;SDS011;66489;49.230;8.520;2023-01-30T20:19:04;16.25;;;9.65;;
77415;SDS011;66489;49.230;8.520;2023-01-30T20:21:37;15.13;;;8.13;;
77415;SDS011;66489;49.230;8.520;2023-01-30T20:24:08;17.48;;;8.68;;
77415;SDS011;66489;49.230;8.520;2023-01-30T20:26:39;17.15;;;8.90;;
77415;SDS011;66489;49.230;8.520;2023-01-30T20:29:13;17.63;;;9.00;;
77415;SDS011;66489;49.230;8.520;2023-01-30T20:31:44;15.30;;;8.88;;
77415;SDS011;66489;49.230;8.520;2023-01-30T20:34:12;17.88;;;9.15;;
77415;SDS011;66489;49.230;8.520;2023-01-30T20:36:39;16.67;;;9.15;;
77415;SDS011;66489;49.230;8.520;2023-01-30T20:41:36;17.17;;;9.18;;
77415;SDS011;66489;49.230;8.520;2023-01-30T20:44:07;17.60;;;10.00;;
77415;SDS011;66489;49.230;8.520;2023-01-30T20:46:40;17.33;;;8.95;;
77415;SDS011;66489;49.230;8.520;2023-01-30T20:51:41;14.55;;;8.48;;
77415;SDS011;66489;49.230;8.520;2023-01-30T20:54:10;18.20;;;9.32;;
77415;SDS011;66489;49.230;8.520;2023-01-30T20:56:39;17.02;;;9.55;;
77415;SDS011;66489;49.230;8.520;2023-01-30T20:59:08;18.67;;;9.60;;
77415;SDS011;66489;49.230;8.520;2023-01-30T21:01:36;17.08;;;9.23;;
77415;SDS011;66489;49.230;8.520;2023-01-30T21:04:04;18.10;;;9.40;;
77415;SDS011;66489;49.230;8.520;2023-01-30T21:06:35;18.58;;;9.13;;
77415;SDS011;66489;49.230;8.520;2023-01-30T21:09:17;15.90;;;9.23;;
77415;SDS011;66489;49.230;8.520;2023-01-30T21:11:46;16.67;;;8.63;;
77415;SDS011;66489;49.230;8.520;2023-01-30T21:14:13;17.08;;;8.93;;
77415;SDS011;66489;49.230;8.520;2023-01-30T21:16:41;17.40;;;8.57;;
77415;SDS011;66489;49.230;8.520;2023-01-30T21:19:09;15.13;;;8.88;;
77415;SDS011;66489;49.230;8.520;2023-01-30T21:21:54;18.27;;;8.40;;
77415;SDS011;66489;49.230;8.520;2023-01-30T21:24:25;15.63;;;8.82;;
77415;SDS011;66489;49.230;8.520;2023-01-30T21:26:54;19.98;;;9.18;;
77415;SDS011;66489;49.230;8.520;2023-01-30T21:29:22;19.10;;;9.13;;
77415;SDS011;66489;49.230;8.520;2023-01-30T21:31:53;19.00;;;8.55;;
77415;SDS011;66489;49.230;8.520;2023-01-30T21:34:21;17.95;;;9.13;;
77415;SDS011;66489;49.230;8.520;2023-01-30T21:36:48;16.95;;;9.23;;
77415;SDS011;66489;49.230;8.520;2023-01-30T21:39:33;18.30;;;9.20;;
77415;SDS011;66489;49.230;8.520;2023-01-30T21:42:18;16.70;;;8.35;;
77415;SDS011;66489;49.230;8.520;2023-01-30T21:45:04;20.38;;;9.20;;
77415;SDS011;66489;49.230;8.520;2023-01-30T21:47:32;15.77;;;8.25;;
77415;SDS011;66489;49.230;8.520;2023-01-30T21:50:02;15.90;;;8.57;;
77415;SDS011;66489;49.230;8.520;2023-01-30T21:52:30;19.25;;;9.52;;
77415;SDS011;66489;49.230;8.520;2023-01-30T21:54:58;16.80;;;9.48;;
77415;SDS011;66489;49.230;8.520;2023-01-30T21:57:46;18.13;;;10.10;;
